createdAt,value
2023-02-09T00:04:29.564Z,0.56
2023-02-09T00:19:23.793Z,0.55
2023-02-09T00:49:06.494Z,0.55
2023-02-09T01:18:51.253Z,0.43
2023-02-09T01:33:43.198Z,0.35
2023-02-09T01:48:34.076Z,0.02
2023-02-09T02:03:23.990Z,-0.24
2023-02-09T02:18:15.578Z,-0.43
2023-02-09T02:33:15.217Z,-0.49
2023-02-09T02:48:19.285Z,-0.53
2023-02-09T03:03:14.187Z,-0.70
2023-02-09T03:18:09.160Z,-0.88
2023-02-09T03:33:02.162Z,-1.05
2023-02-09T03:47:51.041Z,-1.14
2023-02-09T04:02:41.493Z,-1.36
2023-02-09T04:17:32.295Z,-1.61
2023-02-09T04:32:22.279Z,-1.71
2023-02-09T04:47:12.136Z,-1.78
2023-02-09T05:02:03.895Z,-1.78
2023-02-09T05:16:56.012Z,-1.83
2023-02-09T05:31:45.775Z,-1.77
2023-02-09T05:46:36.573Z,-1.81
2023-02-09T06:01:27.844Z,-1.76
2023-02-09T06:16:20.930Z,-1.74
2023-02-09T06:31:13.869Z,-1.85
2023-02-09T06:46:08.715Z,-2.02
2023-02-09T07:01:03.628Z,-2.30
2023-02-09T07:15:56.727Z,-2.48
2023-02-09T07:30:48.982Z,-2.45
2023-02-09T07:45:40.632Z,-2.27
2023-02-09T08:00:31.382Z,-2.08
2023-02-09T08:15:22.369Z,-1.80
2023-02-09T08:30:14.187Z,-1.49
2023-02-09T08:45:09.220Z,-1.07
2023-02-09T09:00:13.376Z,-0.68
2023-02-09T09:14:56.548Z,-0.27
2023-02-09T09:29:49.499Z,0.08
2023-02-09T09:44:41.504Z,0.48
2023-02-09T09:59:35.514Z,0.86
2023-02-09T10:14:29.344Z,1.18
2023-02-09T10:29:26.299Z,1.47
2023-02-09T10:44:21.414Z,1.63
2023-02-09T10:59:16.437Z,1.79
2023-02-09T11:14:13.392Z,2.10
2023-02-09T11:29:24.850Z,2.42
2023-02-09T11:44:22.045Z,2.73
2023-02-09T11:59:26.052Z,3.21
2023-02-09T12:14:28.200Z,3.86
2023-02-09T12:29:39.698Z,4.28
2023-02-09T12:44:35.622Z,4.65
2023-02-09T12:59:26.558Z,4.97
2023-02-09T13:29:21.031Z,5.33
2023-02-09T13:44:22.860Z,5.76
2023-02-09T13:59:20.827Z,5.68
2023-02-09T14:14:14.731Z,5.93
2023-02-09T14:29:11.895Z,5.65
2023-02-09T14:44:08.741Z,5.62
2023-02-09T14:59:02.892Z,5.53
2023-02-09T15:13:58.869Z,5.41
2023-02-09T15:28:54.416Z,5.30
2023-02-09T16:13:33.268Z,5.00
2023-02-09T16:28:27.313Z,4.84
2023-02-09T16:43:19.095Z,4.57
2023-02-09T16:58:10.029Z,4.29
2023-02-09T17:12:59.862Z,4.05
2023-02-09T17:27:49.788Z,3.89
2023-02-09T17:42:39.569Z,3.67
2023-02-09T17:57:31.605Z,3.42
2023-02-09T18:12:23.468Z,3.17
2023-02-09T18:27:17.434Z,2.84
2023-02-09T18:42:10.351Z,2.61
2023-02-09T18:57:02.243Z,2.41
2023-02-09T19:11:53.266Z,2.24
2023-02-09T19:26:43.281Z,2.08
2023-02-09T19:41:33.056Z,2.02
2023-02-09T19:56:25.004Z,1.97
2023-02-09T20:11:17.920Z,1.89
2023-02-09T20:26:08.927Z,1.70
2023-02-09T20:40:59.159Z,1.44
2023-02-09T20:55:50.023Z,1.19
2023-02-09T21:10:41.866Z,1.05
2023-02-09T21:25:32.469Z,0.91
2023-02-09T21:40:22.357Z,0.86
2023-02-09T21:55:13.088Z,0.78
2023-02-09T22:10:05.051Z,0.66
2023-02-09T22:24:57.856Z,0.48
2023-02-09T22:39:48.752Z,0.37
2023-02-09T22:54:39.181Z,0.26
2023-02-09T23:09:30.421Z,0.12
2023-02-09T23:24:20.289Z,0.07
2023-02-09T23:39:10.262Z,0.14
2023-02-09T23:54:01.108Z,0.14
